sensor_id;sensor_type;location;lat;lon;timestamp;P1;durP1;ratioP1;P2;durP2;ratioP2
45692;SDS011;31402;44.752;-0.374;2022-12-10T00:01:54;17.17;;;9.97;;
45692;SDS011;31402;44.752;-0.374;2022-12-10T00:04:20;15.90;;;10.27;;
45692;SDS011;31402;44.752;-0.374;2022-12-10T00:06:47;16.63;;;9.60;;
45692;SDS011;31402;44.752;-0.374;2022-12-10T00:09:16;19.73;;;10.33;;
45692;SDS011;31402;44.752;-0.374;2022-12-10T00:11:43;16.73;;;10.27;;
45692;SDS011;31402;44.752;-0.374;2022-12-10T00:14:10;17.60;;;10.63;;
45692;SDS011;31402;44.752;-0.374;2022-12-10T00:16:37;18.03;;;10.67;;
45692;SDS011;31402;44.752;-0.374;2022-12-10T00:19:03;18.43;;;10.47;;
45692;SDS011;31402;44.752;-0.374;2022-12-10T00:21:30;46.97;;;23.40;;
45692;SDS011;31402;44.752;-0.374;2022-12-10T00:23:58;105.83;;;45.67;;
45692;SDS011;31402;44.752;-0.374;2022-12-10T00:26:25;26.30;;;14.93;;
45692;SDS011;31402;44.752;-0.374;2022-12-10T00:28:54;22.83;;;13.47;;
45692;SDS011;31402;44.752;-0.374;2022-12-10T00:31:21;42.40;;;20.30;;
45692;SDS011;31402;44.752;-0.374;2022-12-10T00:33:50;48.13;;;21.60;;
45692;SDS011;31402;44.752;-0.374;2022-12-10T00:36:20;41.07;;;19.63;;
45692;SDS011;31402;44.752;-0.374;2022-12-10T00:38:48;40.40;;;19.80;;
45692;SDS011;31402;44.752;-0.374;2022-12-10T00:41:15;31.27;;;16.23;;
45692;SDS011;31402;44.752;-0.374;2022-12-10T00:43:42;33.40;;;17.77;;
45692;SDS011;31402;44.752;-0.374;2022-12-10T00:46:08;31.47;;;17.70;;
45692;SDS011;31402;44.752;-0.374;2022-12-10T00:48:34;40.17;;;21.27;;
45692;SDS011;31402;44.752;-0.374;2022-12-10T00:53:28;25.63;;;13.63;;
45692;SDS011;31402;44.752;-0.374;2022-12-10T00:55:55;30.20;;;15.83;;
45692;SDS011;31402;44.752;-0.374;2022-12-10T00:58:22;26.43;;;14.37;;
45692;SDS011;31402;44.752;-0.374;2022-12-10T01:00:49;27.97;;;14.83;;
45692;SDS011;31402;44.752;-0.374;2022-12-10T01:03:15;21.97;;;12.00;;
45692;SDS011;31402;44.752;-0.374;2022-12-10T01:05:41;26.90;;;15.23;;
45692;SDS011;31402;44.752;-0.374;2022-12-10T01:08:06;22.50;;;12.57;;
45692;SDS011;31402;44.752;-0.374;2022-12-10T01:10:32;22.03;;;11.83;;
45692;SDS011;31402;44.752;-0.374;2022-12-10T01:12:58;24.80;;;13.43;;
45692;SDS011;31402;44.752;-0.374;2022-12-10T01:15:24;25.20;;;14.07;;
45692;SDS011;31402;44.752;-0.374;2022-12-10T01:17:49;18.40;;;11.17;;
45692;SDS011;31402;44.752;-0.374;2022-12-10T01:20:15;22.13;;;13.13;;
45692;SDS011;31402;44.752;-0.374;2022-12-10T01:22:41;21.63;;;12.97;;
45692;SDS011;31402;44.752;-0.374;2022-12-10T01:25:07;23.97;;;12.07;;
45692;SDS011;31402;44.752;-0.374;2022-12-10T01:27:33;22.80;;;12.33;;
45692;SDS011;31402;44.752;-0.374;2022-12-10T01:29:58;19.93;;;11.80;;
45692;SDS011;31402;44.752;-0.374;2022-12-10T01:32:24;22.90;;;13.10;;
45692;SDS011;31402;44.752;-0.374;2022-12-10T01:34:50;27.60;;;13.80;;
45692;SDS011;31402;44.752;-0.374;2022-12-10T01:37:16;22.27;;;12.87;;
45692;SDS011;31402;44.752;-0.374;2022-12-10T01:39:42;22.53;;;12.07;;
45692;SDS011;31402;44.752;-0.374;2022-12-10T01:42:11;21.17;;;12.17;;
45692;SDS011;31402;44.752;-0.374;2022-12-10T01:47:07;23.13;;;13.47;;
45692;SDS011;31402;44.752;-0.374;2022-12-10T01:49:35;20.40;;;12.13;;
45692;SDS011;31402;44.752;-0.374;2022-12-10T01:52:04;21.27;;;13.30;;
45692;SDS011;31402;44.752;-0.374;2022-12-10T01:54:33;18.47;;;11.23;;
45692;SDS011;31402;44.752;-0.374;2022-12-10T01:57:03;24.57;;;13.07;;
45692;SDS011;31402;44.752;-0.374;2022-12-10T01:59:38;22.37;;;12.20;;
45692;SDS011;31402;44.752;-0.374;2022-12-10T02:02:08;22.57;;;12.50;;
45692;SDS011;31402;44.752;-0.374;2022-12-10T02:07:54;21.80;;;11.73;;
45692;SDS011;31402;44.752;-0.374;2022-12-10T02:13:14;19.50;;;11.40;;
45692;SDS011;31402;44.752;-0.374;2022-12-10T02:18:35;21.93;;;12.60;;
45692;SDS011;31402;44.752;-0.374;2022-12-10T02:21:08;23.33;;;12.63;;
45692;SDS011;31402;44.752;-0.374;2022-12-10T02:23:59;19.93;;;11.63;;
45692;SDS011;31402;44.752;-0.374;2022-12-10T02:29:20;18.73;;;11.00;;
45692;SDS011;31402;44.752;-0.374;2022-12-10T02:31:50;22.17;;;13.33;;
45692;SDS011;31402;44.752;-0.374;2022-12-10T02:34:20;17.37;;;10.93;;
45692;SDS011;31402;44.752;-0.374;2022-12-10T02:36:48;30.07;;;16.00;;
45692;SDS011;31402;44.752;-0.374;2022-12-10T02:39:23;26.87;;;14.63;;
45692;SDS011;31402;44.752;-0.374;2022-12-10T02:41:54;22.30;;;12.47;;
45692;SDS011;31402;44.752;-0.374;2022-12-10T02:44:21;26.50;;;14.27;;
45692;SDS011;31402;44.752;-0.374;2022-12-10T02:46:49;19.13;;;11.57;;
45692;SDS011;31402;44.752;-0.374;2022-12-10T02:49:18;17.43;;;11.10;;
45692;SDS011;31402;44.752;-0.374;2022-12-10T02:51:45;17.93;;;11.10;;
45692;SDS011;31402;44.752;-0.374;2022-12-10T02:57:27;17.93;;;10.40;;
45692;SDS011;31402;44.752;-0.374;2022-12-10T03:00:19;23.57;;;13.90;;
45692;SDS011;31402;44.752;-0.374;2022-12-10T03:10:42;18.07;;;11.43;;
45692;SDS011;31402;44.752;-0.374;2022-12-10T03:13:15;22.53;;;12.83;;
45692;SDS011;31402;44.752;-0.374;2022-12-10T03:15:45;21.90;;;12.13;;
45692;SDS011;31402;44.752;-0.374;2022-12-10T03:18:12;17.97;;;11.17;;
45692;SDS011;31402;44.752;-0.374;2022-12-10T03:20:43;19.00;;;11.07;;
45692;SDS011;31402;44.752;-0.374;2022-12-10T03:23:14;17.57;;;10.60;;
45692;SDS011;31402;44.752;-0.374;2022-12-10T03:25:43;16.27;;;10.43;;
45692;SDS011;31402;44.752;-0.374;2022-12-10T03:28:12;17.67;;;11.13;;
45692;SDS011;31402;44.752;-0.374;2022-12-10T03:30:39;16.97;;;10.30;;
45692;SDS011;31402;44.752;-0.374;2022-12-10T03:33:06;19.90;;;10.47;;
45692;SDS011;31402;44.752;-0.374;2022-12-10T03:35:33;17.03;;;10.57;;
45692;SDS011;31402;44.752;-0.374;2022-12-10T03:37:59;16.73;;;9.90;;
45692;SDS011;31402;44.752;-0.374;2022-12-10T03:40:25;19.40;;;10.40;;
45692;SDS011;31402;44.752;-0.374;2022-12-10T03:42:51;16.67;;;10.03;;
45692;SDS011;31402;44.752;-0.374;2022-12-10T03:45:17;17.53;;;10.17;;
45692;SDS011;31402;44.752;-0.374;2022-12-10T03:47:43;18.83;;;11.00;;
45692;SDS011;31402;44.752;-0.374;2022-12-10T03:50:09;17.23;;;10.07;;
45692;SDS011;31402;44.752;-0.374;2022-12-10T03:52:36;17.07;;;9.90;;
45692;SDS011;31402;44.752;-0.374;2022-12-10T03:55:01;17.13;;;9.93;;
45692;SDS011;31402;44.752;-0.374;2022-12-10T03:57:28;15.80;;;10.20;;
45692;SDS011;31402;44.752;-0.374;2022-12-10T03:59:54;17.97;;;10.77;;
45692;SDS011;31402;44.752;-0.374;2022-12-10T04:02:19;16.30;;;9.10;;
45692;SDS011;31402;44.752;-0.374;2022-12-10T04:04:45;14.67;;;9.53;;
45692;SDS011;31402;44.752;-0.374;2022-12-10T04:07:11;15.07;;;9.63;;
45692;SDS011;31402;44.752;-0.374;2022-12-10T04:09:36;16.10;;;10.03;;
45692;SDS011;31402;44.752;-0.374;2022-12-10T04:12:02;14.40;;;9.63;;
45692;SDS011;31402;44.752;-0.374;2022-12-10T04:14:29;15.53;;;9.50;;
45692;SDS011;31402;44.752;-0.374;2022-12-10T04:17:14;16.53;;;9.23;;
45692;SDS011;31402;44.752;-0.374;2022-12-10T04:19:39;16.93;;;10.50;;
45692;SDS011;31402;44.752;-0.374;2022-12-10T04:22:07;15.37;;;9.83;;
45692;SDS011;31402;44.752;-0.374;2022-12-10T04:24:52;15.90;;;9.97;;
45692;SDS011;31402;44.752;-0.374;2022-12-10T04:27:37;15.57;;;9.87;;
45692;SDS011;31402;44.752;-0.374;2022-12-10T04:30:08;21.50;;;10.60;;
45692;SDS011;31402;44.752;-0.374;2022-12-10T04:32:35;19.03;;;10.73;;
45692;SDS011;31402;44.752;-0.374;2022-12-10T04:35:01;15.23;;;9.40;;
45692;SDS011;31402;44.752;-0.374;2022-12-10T04:37:27;14.70;;;8.93;;
45692;SDS011;31402;44.752;-0.374;2022-12-10T04:39:53;17.93;;;8.40;;
45692;SDS011;31402;44.752;-0.374;2022-12-10T04:42:20;16.10;;;9.40;;
45692;SDS011;31402;44.752;-0.374;2022-12-10T04:44:46;17.00;;;10.27;;
45692;SDS011;31402;44.752;-0.374;2022-12-10T04:47:12;16.73;;;9.87;;
45692;SDS011;31402;44.752;-0.374;2022-12-10T04:49:38;17.73;;;10.13;;
45692;SDS011;31402;44.752;-0.374;2022-12-10T04:52:05;17.37;;;10.17;;
45692;SDS011;31402;44.752;-0.374;2022-12-10T04:54:32;16.83;;;10.30;;
45692;SDS011;31402;44.752;-0.374;2022-12-10T04:56:58;16.77;;;9.93;;
45692;SDS011;31402;44.752;-0.374;2022-12-10T04:59:24;14.40;;;9.43;;
45692;SDS011;31402;44.752;-0.374;2022-12-10T05:01:49;16.10;;;9.83;;
45692;SDS011;31402;44.752;-0.374;2022-12-10T05:04:16;16.17;;;9.97;;
45692;SDS011;31402;44.752;-0.374;2022-12-10T05:06:43;15.03;;;9.63;;
45692;SDS011;31402;44.752;-0.374;2022-12-10T05:09:11;19.33;;;10.30;;
45692;SDS011;31402;44.752;-0.374;2022-12-10T05:11:37;17.00;;;10.13;;
45692;SDS011;31402;44.752;-0.374;2022-12-10T05:14:03;17.50;;;10.47;;
45692;SDS011;31402;44.752;-0.374;2022-12-10T05:16:30;17.23;;;10.00;;
45692;SDS011;31402;44.752;-0.374;2022-12-10T05:18:58;18.90;;;10.90;;
45692;SDS011;31402;44.752;-0.374;2022-12-10T05:21:25;17.03;;;9.60;;
45692;SDS011;31402;44.752;-0.374;2022-12-10T05:24:15;17.60;;;10.53;;
45692;SDS011;31402;44.752;-0.374;2022-12-10T05:26:42;15.57;;;10.37;;
45692;SDS011;31402;44.752;-0.374;2022-12-10T05:29:08;18.17;;;10.47;;
45692;SDS011;31402;44.752;-0.374;2022-12-10T05:31:34;18.23;;;10.83;;
45692;SDS011;31402;44.752;-0.374;2022-12-10T05:34:00;16.77;;;10.03;;
45692;SDS011;31402;44.752;-0.374;2022-12-10T05:36:28;15.90;;;10.23;;
45692;SDS011;31402;44.752;-0.374;2022-12-10T05:38:55;16.20;;;10.00;;
45692;SDS011;31402;44.752;-0.374;2022-12-10T05:41:23;15.77;;;9.90;;
45692;SDS011;31402;44.752;-0.374;2022-12-10T05:43:53;17.30;;;9.87;;
45692;SDS011;31402;44.752;-0.374;2022-12-10T05:46:27;18.57;;;10.07;;
45692;SDS011;31402;44.752;-0.374;2022-12-10T05:48:54;20.50;;;9.90;;
45692;SDS011;31402;44.752;-0.374;2022-12-10T05:51:22;18.40;;;10.00;;
45692;SDS011;31402;44.752;-0.374;2022-12-10T05:53:50;18.33;;;10.70;;
45692;SDS011;31402;44.752;-0.374;2022-12-10T05:56:17;19.77;;;11.77;;
45692;SDS011;31402;44.752;-0.374;2022-12-10T05:58:45;17.57;;;10.70;;
45692;SDS011;31402;44.752;-0.374;2022-12-10T06:01:13;19.10;;;11.17;;
45692;SDS011;31402;44.752;-0.374;2022-12-10T06:03:40;16.97;;;10.67;;
45692;SDS011;31402;44.752;-0.374;2022-12-10T06:06:07;18.70;;;10.67;;
45692;SDS011;31402;44.752;-0.374;2022-12-10T06:08:33;19.70;;;11.27;;
45692;SDS011;31402;44.752;-0.374;2022-12-10T06:11:04;21.97;;;11.57;;
45692;SDS011;31402;44.752;-0.374;2022-12-10T06:13:35;19.83;;;10.90;;
45692;SDS011;31402;44.752;-0.374;2022-12-10T06:16:08;17.63;;;11.20;;
45692;SDS011;31402;44.752;-0.374;2022-12-10T06:18:36;15.70;;;10.07;;
45692;SDS011;31402;44.752;-0.374;2022-12-10T06:21:06;17.40;;;10.43;;
45692;SDS011;31402;44.752;-0.374;2022-12-10T06:23:34;20.27;;;11.07;;
45692;SDS011;31402;44.752;-0.374;2022-12-10T06:26:19;16.60;;;10.77;;
45692;SDS011;31402;44.752;-0.374;2022-12-10T06:28:47;18.20;;;10.63;;
45692;SDS011;31402;44.752;-0.374;2022-12-10T06:31:14;18.30;;;10.40;;
45692;SDS011;31402;44.752;-0.374;2022-12-10T06:33:41;16.87;;;10.23;;
45692;SDS011;31402;44.752;-0.374;2022-12-10T06:36:07;20.43;;;10.67;;
45692;SDS011;31402;44.752;-0.374;2022-12-10T06:38:35;18.57;;;11.10;;
45692;SDS011;31402;44.752;-0.374;2022-12-10T06:41:05;19.77;;;10.97;;
45692;SDS011;31402;44.752;-0.374;2022-12-10T06:43:33;19.63;;;10.30;;
45692;SDS011;31402;44.752;-0.374;2022-12-10T06:45:58;16.07;;;10.53;;
45692;SDS011;31402;44.752;-0.374;2022-12-10T06:48:28;17.87;;;10.47;;
45692;SDS011;31402;44.752;-0.374;2022-12-10T06:50:55;19.87;;;10.30;;
45692;SDS011;31402;44.752;-0.374;2022-12-10T06:53:20;17.60;;;10.60;;
45692;SDS011;31402;44.752;-0.374;2022-12-10T06:55:46;16.17;;;10.23;;
45692;SDS011;31402;44.752;-0.374;2022-12-10T06:58:12;16.80;;;9.73;;
45692;SDS011;31402;44.752;-0.374;2022-12-10T07:00:38;20.67;;;10.23;;
45692;SDS011;31402;44.752;-0.374;2022-12-10T07:03:03;17.60;;;10.80;;
45692;SDS011;31402;44.752;-0.374;2022-12-10T07:05:29;17.17;;;10.27;;
45692;SDS011;31402;44.752;-0.374;2022-12-10T07:07:55;18.50;;;10.13;;
45692;SDS011;31402;44.752;-0.374;2022-12-10T07:10:21;17.53;;;9.80;;
45692;SDS011;31402;44.752;-0.374;2022-12-10T07:12:47;17.47;;;10.37;;
45692;SDS011;31402;44.752;-0.374;2022-12-10T07:15:13;18.67;;;10.80;;
45692;SDS011;31402;44.752;-0.374;2022-12-10T07:17:39;19.97;;;11.17;;
45692;SDS011;31402;44.752;-0.374;2022-12-10T07:20:04;17.93;;;10.83;;
45692;SDS011;31402;44.752;-0.374;2022-12-10T07:22:30;19.80;;;10.90;;
45692;SDS011;31402;44.752;-0.374;2022-12-10T07:24:56;18.20;;;12.07;;
45692;SDS011;31402;44.752;-0.374;2022-12-10T07:27:22;17.63;;;11.63;;
45692;SDS011;31402;44.752;-0.374;2022-12-10T07:29:48;20.47;;;11.57;;
45692;SDS011;31402;44.752;-0.374;2022-12-10T07:32:13;18.60;;;10.80;;
45692;SDS011;31402;44.752;-0.374;2022-12-10T07:34:39;20.80;;;11.47;;
45692;SDS011;31402;44.752;-0.374;2022-12-10T07:37:05;19.80;;;10.43;;
45692;SDS011;31402;44.752;-0.374;2022-12-10T07:39:31;21.73;;;11.10;;
45692;SDS011;31402;44.752;-0.374;2022-12-10T07:41:57;17.97;;;10.70;;
45692;SDS011;31402;44.752;-0.374;2022-12-10T07:44:24;19.37;;;11.47;;
45692;SDS011;31402;44.752;-0.374;2022-12-10T07:46:51;21.83;;;11.37;;
45692;SDS011;31402;44.752;-0.374;2022-12-10T07:49:18;21.33;;;11.43;;
45692;SDS011;31402;44.752;-0.374;2022-12-10T07:51:44;18.60;;;10.93;;
45692;SDS011;31402;44.752;-0.374;2022-12-10T07:54:11;19.67;;;11.70;;
45692;SDS011;31402;44.752;-0.374;2022-12-10T07:56:38;23.67;;;11.77;;
45692;SDS011;31402;44.752;-0.374;2022-12-10T07:59:03;22.30;;;10.87;;
45692;SDS011;31402;44.752;-0.374;2022-12-10T08:01:29;17.90;;;10.80;;
45692;SDS011;31402;44.752;-0.374;2022-12-10T08:03:55;17.90;;;11.40;;
45692;SDS011;31402;44.752;-0.374;2022-12-10T08:06:21;19.17;;;11.10;;
45692;SDS011;31402;44.752;-0.374;2022-12-10T08:08:48;19.37;;;11.83;;
45692;SDS011;31402;44.752;-0.374;2022-12-10T08:11:15;19.83;;;11.33;;
45692;SDS011;31402;44.752;-0.374;2022-12-10T08:13:43;18.37;;;10.43;;
45692;SDS011;31402;44.752;-0.374;2022-12-10T08:16:13;18.10;;;11.40;;
45692;SDS011;31402;44.752;-0.374;2022-12-10T08:18:40;15.70;;;9.70;;
45692;SDS011;31402;44.752;-0.374;2022-12-10T08:21:07;20.03;;;11.90;;
45692;SDS011;31402;44.752;-0.374;2022-12-10T08:23:35;20.57;;;11.87;;
45692;SDS011;31402;44.752;-0.374;2022-12-10T08:26:07;20.77;;;12.57;;
45692;SDS011;31402;44.752;-0.374;2022-12-10T08:28:38;24.30;;;12.47;;
45692;SDS011;31402;44.752;-0.374;2022-12-10T08:31:04;19.30;;;11.63;;
45692;SDS011;31402;44.752;-0.374;2022-12-10T08:33:33;18.33;;;12.27;;
45692;SDS011;31402;44.752;-0.374;2022-12-10T08:35:59;21.57;;;12.80;;
45692;SDS011;31402;44.752;-0.374;2022-12-10T08:38:26;21.37;;;13.07;;
45692;SDS011;31402;44.752;-0.374;2022-12-10T08:40:52;24.73;;;14.87;;
45692;SDS011;31402;44.752;-0.374;2022-12-10T08:43:18;24.37;;;14.90;;
45692;SDS011;31402;44.752;-0.374;2022-12-10T08:45:44;25.33;;;15.43;;
45692;SDS011;31402;44.752;-0.374;2022-12-10T08:48:09;28.80;;;16.23;;
45692;SDS011;31402;44.752;-0.374;2022-12-10T08:50:36;24.60;;;15.20;;
45692;SDS011;31402;44.752;-0.374;2022-12-10T08:53:02;25.40;;;16.17;;
45692;SDS011;31402;44.752;-0.374;2022-12-10T08:55:27;27.83;;;16.03;;
45692;SDS011;31402;44.752;-0.374;2022-12-10T08:57:53;29.03;;;17.33;;
45692;SDS011;31402;44.752;-0.374;2022-12-10T09:00:20;28.77;;;16.63;;
45692;SDS011;31402;44.752;-0.374;2022-12-10T09:02:46;28.13;;;17.60;;
45692;SDS011;31402;44.752;-0.374;2022-12-10T09:05:12;27.77;;;16.53;;
45692;SDS011;31402;44.752;-0.374;2022-12-10T09:07:38;28.47;;;16.70;;
45692;SDS011;31402;44.752;-0.374;2022-12-10T09:10:04;30.37;;;17.83;;
45692;SDS011;31402;44.752;-0.374;2022-12-10T09:12:32;29.17;;;16.03;;
45692;SDS011;31402;44.752;-0.374;2022-12-10T09:14:58;27.73;;;16.93;;
45692;SDS011;31402;44.752;-0.374;2022-12-10T09:17:25;30.60;;;15.87;;
45692;SDS011;31402;44.752;-0.374;2022-12-10T09:19:50;24.67;;;15.33;;
45692;SDS011;31402;44.752;-0.374;2022-12-10T09:22:16;29.50;;;15.50;;
45692;SDS011;31402;44.752;-0.374;2022-12-10T09:24:42;25.53;;;14.50;;
45692;SDS011;31402;44.752;-0.374;2022-12-10T09:27:08;28.10;;;14.87;;
45692;SDS011;31402;44.752;-0.374;2022-12-10T09:29:33;25.93;;;14.87;;
45692;SDS011;31402;44.752;-0.374;2022-12-10T09:31:59;25.73;;;14.83;;
45692;SDS011;31402;44.752;-0.374;2022-12-10T09:34:25;26.50;;;14.70;;
45692;SDS011;31402;44.752;-0.374;2022-12-10T09:36:51;24.60;;;13.57;;
45692;SDS011;31402;44.752;-0.374;2022-12-10T09:39:16;24.13;;;14.23;;
45692;SDS011;31402;44.752;-0.374;2022-12-10T09:41:54;20.93;;;13.07;;
45692;SDS011;31402;44.752;-0.374;2022-12-10T09:47:39;23.37;;;13.13;;
45692;SDS011;31402;44.752;-0.374;2022-12-10T09:50:20;21.13;;;13.20;;
45692;SDS011;31402;44.752;-0.374;2022-12-10T09:52:49;19.20;;;12.60;;
45692;SDS011;31402;44.752;-0.374;2022-12-10T09:55:19;22.47;;;12.23;;
45692;SDS011;31402;44.752;-0.374;2022-12-10T09:57:59;20.60;;;12.17;;
45692;SDS011;31402;44.752;-0.374;2022-12-10T10:02:59;19.70;;;10.53;;
45692;SDS011;31402;44.752;-0.374;2022-12-10T10:05:30;18.07;;;11.43;;
45692;SDS011;31402;44.752;-0.374;2022-12-10T10:08:01;19.87;;;11.23;;
45692;SDS011;31402;44.752;-0.374;2022-12-10T10:10:33;21.70;;;12.27;;
45692;SDS011;31402;44.752;-0.374;2022-12-10T10:15:33;21.57;;;11.90;;
45692;SDS011;31402;44.752;-0.374;2022-12-10T10:18:07;18.60;;;11.83;;
45692;SDS011;31402;44.752;-0.374;2022-12-10T10:20:53;17.57;;;11.27;;
45692;SDS011;31402;44.752;-0.374;2022-12-10T10:23:20;19.73;;;12.53;;
45692;SDS011;31402;44.752;-0.374;2022-12-10T10:25:46;22.17;;;12.37;;
45692;SDS011;31402;44.752;-0.374;2022-12-10T10:28:13;29.03;;;16.13;;
45692;SDS011;31402;44.752;-0.374;2022-12-10T10:30:45;27.70;;;15.50;;
45692;SDS011;31402;44.752;-0.374;2022-12-10T10:33:12;20.30;;;12.00;;
45692;SDS011;31402;44.752;-0.374;2022-12-10T10:35:44;21.13;;;10.93;;
45692;SDS011;31402;44.752;-0.374;2022-12-10T10:38:27;21.23;;;12.17;;
45692;SDS011;31402;44.752;-0.374;2022-12-10T10:40:58;23.17;;;13.63;;
45692;SDS011;31402;44.752;-0.374;2022-12-10T10:43:27;30.67;;;17.53;;
45692;SDS011;31402;44.752;-0.374;2022-12-10T10:45:59;21.17;;;13.33;;
45692;SDS011;31402;44.752;-0.374;2022-12-10T10:48:30;23.73;;;13.93;;
45692;SDS011;31402;44.752;-0.374;2022-12-10T10:51:06;24.73;;;14.73;;
45692;SDS011;31402;44.752;-0.374;2022-12-10T10:56:17;31.83;;;19.93;;
45692;SDS011;31402;44.752;-0.374;2022-12-10T11:01:48;25.83;;;14.43;;
45692;SDS011;31402;44.752;-0.374;2022-12-10T11:04:17;25.20;;;14.57;;
45692;SDS011;31402;44.752;-0.374;2022-12-10T11:06:46;25.87;;;15.53;;
45692;SDS011;31402;44.752;-0.374;2022-12-10T11:09:17;35.90;;;18.93;;
45692;SDS011;31402;44.752;-0.374;2022-12-10T11:11:50;24.63;;;15.40;;
45692;SDS011;31402;44.752;-0.374;2022-12-10T11:17:02;24.40;;;13.90;;
45692;SDS011;31402;44.752;-0.374;2022-12-10T11:19:34;27.00;;;14.97;;
45692;SDS011;31402;44.752;-0.374;2022-12-10T11:22:16;24.50;;;14.40;;
45692;SDS011;31402;44.752;-0.374;2022-12-10T11:24:47;26.83;;;14.63;;
45692;SDS011;31402;44.752;-0.374;2022-12-10T11:27:58;21.33;;;13.00;;
45692;SDS011;31402;44.752;-0.374;2022-12-10T11:30:43;22.97;;;13.00;;
45692;SDS011;31402;44.752;-0.374;2022-12-10T11:33:32;22.47;;;12.93;;
45692;SDS011;31402;44.752;-0.374;2022-12-10T11:36:15;21.37;;;12.87;;
45692;SDS011;31402;44.752;-0.374;2022-12-10T11:39:10;23.70;;;13.60;;
45692;SDS011;31402;44.752;-0.374;2022-12-10T11:42:05;22.90;;;13.37;;
45692;SDS011;31402;44.752;-0.374;2022-12-10T11:44:43;29.87;;;16.63;;
45692;SDS011;31402;44.752;-0.374;2022-12-10T11:50:18;43.80;;;24.67;;
45692;SDS011;31402;44.752;-0.374;2022-12-10T11:53:01;22.70;;;12.73;;
45692;SDS011;31402;44.752;-0.374;2022-12-10T12:01:08;24.77;;;14.20;;
45692;SDS011;31402;44.752;-0.374;2022-12-10T12:17:13;21.03;;;11.20;;
45692;SDS011;31402;44.752;-0.374;2022-12-10T12:19:45;18.33;;;11.80;;
45692;SDS011;31402;44.752;-0.374;2022-12-10T12:22:21;19.17;;;11.40;;
45692;SDS011;31402;44.752;-0.374;2022-12-10T12:24:50;25.17;;;14.67;;
45692;SDS011;31402;44.752;-0.374;2022-12-10T12:27:30;18.00;;;10.77;;
45692;SDS011;31402;44.752;-0.374;2022-12-10T12:40:43;16.37;;;10.27;;
45692;SDS011;31402;44.752;-0.374;2022-12-10T12:43:18;21.17;;;13.20;;
45692;SDS011;31402;44.752;-0.374;2022-12-10T12:45:52;18.83;;;11.37;;
45692;SDS011;31402;44.752;-0.374;2022-12-10T12:48:28;18.40;;;11.37;;
45692;SDS011;31402;44.752;-0.374;2022-12-10T12:53:48;15.57;;;10.00;;
45692;SDS011;31402;44.752;-0.374;2022-12-10T12:56:21;20.43;;;11.20;;
45692;SDS011;31402;44.752;-0.374;2022-12-10T12:59:08;20.17;;;11.63;;
45692;SDS011;31402;44.752;-0.374;2022-12-10T13:04:24;22.67;;;14.13;;
45692;SDS011;31402;44.752;-0.374;2022-12-10T13:19:24;19.73;;;10.43;;
45692;SDS011;31402;44.752;-0.374;2022-12-10T13:37:35;18.07;;;10.67;;
45692;SDS011;31402;44.752;-0.374;2022-12-10T13:42:38;22.77;;;12.80;;
45692;SDS011;31402;44.752;-0.374;2022-12-10T13:45:29;31.90;;;16.67;;
45692;SDS011;31402;44.752;-0.374;2022-12-10T13:48:16;17.43;;;9.80;;
45692;SDS011;31402;44.752;-0.374;2022-12-10T13:55:49;33.23;;;14.80;;
45692;SDS011;31402;44.752;-0.374;2022-12-10T14:01:50;30.27;;;13.73;;
45692;SDS011;31402;44.752;-0.374;2022-12-10T14:07:50;15.53;;;8.80;;
45692;SDS011;31402;44.752;-0.374;2022-12-10T14:10:19;17.90;;;8.77;;
45692;SDS011;31402;44.752;-0.374;2022-12-10T14:12:53;18.20;;;9.00;;
45692;SDS011;31402;44.752;-0.374;2022-12-10T14:15:20;15.87;;;9.20;;
45692;SDS011;31402;44.752;-0.374;2022-12-10T14:17:49;15.30;;;9.17;;
45692;SDS011;31402;44.752;-0.374;2022-12-10T14:20:22;14.30;;;8.23;;
45692;SDS011;31402;44.752;-0.374;2022-12-10T14:22:51;17.00;;;9.17;;
45692;SDS011;31402;44.752;-0.374;2022-12-10T14:25:43;15.73;;;9.60;;
45692;SDS011;31402;44.752;-0.374;2022-12-10T14:28:12;13.80;;;8.30;;
45692;SDS011;31402;44.752;-0.374;2022-12-10T14:30:43;17.63;;;8.70;;
45692;SDS011;31402;44.752;-0.374;2022-12-10T14:33:12;18.83;;;9.50;;
45692;SDS011;31402;44.752;-0.374;2022-12-10T14:35:41;18.90;;;9.00;;
45692;SDS011;31402;44.752;-0.374;2022-12-10T14:38:12;19.67;;;10.03;;
45692;SDS011;31402;44.752;-0.374;2022-12-10T14:41:12;17.60;;;8.43;;
45692;SDS011;31402;44.752;-0.374;2022-12-10T14:43:42;17.40;;;8.40;;
45692;SDS011;31402;44.752;-0.374;2022-12-10T14:46:18;14.17;;;8.27;;
45692;SDS011;31402;44.752;-0.374;2022-12-10T14:48:48;14.57;;;7.53;;
45692;SDS011;31402;44.752;-0.374;2022-12-10T14:51:20;13.67;;;7.73;;
45692;SDS011;31402;44.752;-0.374;2022-12-10T14:53:48;16.27;;;8.67;;
45692;SDS011;31402;44.752;-0.374;2022-12-10T15:01:40;16.37;;;8.80;;
45692;SDS011;31402;44.752;-0.374;2022-12-10T15:04:15;15.53;;;7.93;;
45692;SDS011;31402;44.752;-0.374;2022-12-10T15:06:42;13.87;;;8.00;;
45692;SDS011;31402;44.752;-0.374;2022-12-10T15:09:15;16.07;;;8.33;;
45692;SDS011;31402;44.752;-0.374;2022-12-10T15:11:44;14.57;;;8.47;;
45692;SDS011;31402;44.752;-0.374;2022-12-10T15:14:15;14.87;;;8.60;;
45692;SDS011;31402;44.752;-0.374;2022-12-10T15:16:44;14.20;;;8.13;;
45692;SDS011;31402;44.752;-0.374;2022-12-10T15:19:18;17.70;;;8.67;;
45692;SDS011;31402;44.752;-0.374;2022-12-10T15:22:00;12.87;;;7.13;;
45692;SDS011;31402;44.752;-0.374;2022-12-10T15:24:42;13.20;;;7.23;;
45692;SDS011;31402;44.752;-0.374;2022-12-10T15:27:16;14.10;;;7.50;;
45692;SDS011;31402;44.752;-0.374;2022-12-10T15:29:46;12.70;;;7.73;;
45692;SDS011;31402;44.752;-0.374;2022-12-10T15:32:13;12.47;;;7.43;;
45692;SDS011;31402;44.752;-0.374;2022-12-10T15:34:52;15.93;;;7.57;;
45692;SDS011;31402;44.752;-0.374;2022-12-10T15:37:23;13.43;;;7.73;;
45692;SDS011;31402;44.752;-0.374;2022-12-10T15:39:55;12.50;;;7.20;;
45692;SDS011;31402;44.752;-0.374;2022-12-10T15:42:27;14.53;;;7.97;;
45692;SDS011;31402;44.752;-0.374;2022-12-10T15:44:56;14.80;;;6.83;;
45692;SDS011;31402;44.752;-0.374;2022-12-10T15:47:26;11.67;;;7.27;;
45692;SDS011;31402;44.752;-0.374;2022-12-10T15:49:53;11.90;;;7.20;;
45692;SDS011;31402;44.752;-0.374;2022-12-10T15:52:24;13.20;;;7.43;;
45692;SDS011;31402;44.752;-0.374;2022-12-10T15:54:55;12.53;;;7.37;;
45692;SDS011;31402;44.752;-0.374;2022-12-10T15:57:25;14.20;;;7.30;;
45692;SDS011;31402;44.752;-0.374;2022-12-10T15:59:54;14.17;;;6.83;;
45692;SDS011;31402;44.752;-0.374;2022-12-10T16:05:16;18.63;;;10.77;;
45692;SDS011;31402;44.752;-0.374;2022-12-10T16:07:58;20.23;;;11.70;;
45692;SDS011;31402;44.752;-0.374;2022-12-10T16:10:27;36.03;;;17.07;;
45692;SDS011;31402;44.752;-0.374;2022-12-10T16:13:03;20.37;;;9.97;;
45692;SDS011;31402;44.752;-0.374;2022-12-10T16:15:39;18.33;;;9.23;;
45692;SDS011;31402;44.752;-0.374;2022-12-10T16:18:09;12.03;;;6.83;;
45692;SDS011;31402;44.752;-0.374;2022-12-10T16:20:36;13.10;;;7.50;;
45692;SDS011;31402;44.752;-0.374;2022-12-10T16:23:02;11.07;;;7.00;;
45692;SDS011;31402;44.752;-0.374;2022-12-10T16:25:31;14.63;;;7.13;;
45692;SDS011;31402;44.752;-0.374;2022-12-10T16:27:58;13.03;;;7.27;;
45692;SDS011;31402;44.752;-0.374;2022-12-10T16:30:33;14.10;;;7.70;;
45692;SDS011;31402;44.752;-0.374;2022-12-10T16:33:01;13.40;;;7.53;;
45692;SDS011;31402;44.752;-0.374;2022-12-10T16:35:27;14.53;;;7.63;;
45692;SDS011;31402;44.752;-0.374;2022-12-10T16:37:53;14.00;;;7.07;;
45692;SDS011;31402;44.752;-0.374;2022-12-10T16:40:23;13.97;;;7.50;;